Terminal Aerodrome Forecast
Issued by NWS

Home | Current Version | Previous Version | Graphics & Text | Print | Product List | Glossary On
Versions: 1 2 3 4 5 6 7 8 9 10 11 12 13 14 15 16 17 18 19 20 21 22 23 24 25 26 27 28 29 30
395
FTUS43 KLOT 202320
TAFDPA
TAF
KDPA 202320Z 2100/2124 15015G24KT P6SM SCT090 OVC200
     FM210500 19013G22KT P6SM BKN035 OVC080
     FM210700 22012KT 6SM -SHRA BKN015 OVC035
      TEMPO 2108/2112 3SM SHRA BR BKN008 OVC015
     FM211300 25007KT P6SM SCT007 BKN012
     FM211800 28006KT P6SM SCT025=

USA.gov is the U.S. government's official web portal to all federal, state and local government web resources and services.